createdAt,value
2019-03-21T00:01:26.182Z,9.50
2019-03-21T00:04:00.881Z,9.98
2019-03-21T00:06:37.183Z,11.03
2019-03-21T00:09:09.163Z,9.95
2019-03-21T00:12:03.791Z,10.58
2019-03-21T00:15:12.239Z,8.70
2019-03-21T00:17:54.170Z,9.28
2019-03-21T00:20:30.317Z,10.03
2019-03-21T00:23:13.203Z,10.32
2019-03-21T00:25:42.509Z,11.40
2019-03-21T00:28:11.767Z,9.83
2019-03-21T00:30:47.773Z,9.80
2019-03-21T00:33:17.028Z,13.28
2019-03-21T00:35:46.269Z,11.50
2019-03-21T00:38:22.260Z,10.65
2019-03-21T00:40:51.540Z,10.08
2019-03-21T00:43:33.524Z,12.88
2019-03-21T00:46:02.800Z,10.10
2019-03-21T00:48:32.055Z,12.82
2019-03-21T00:51:08.100Z,12.20
2019-03-21T00:53:37.917Z,11.40
2019-03-21T00:56:07.169Z,12.33
2019-03-21T00:58:42.601Z,10.65
2019-03-21T01:01:12.216Z,13.60
2019-03-21T01:03:41.578Z,11.95
2019-03-21T01:06:17.904Z,10.88
2019-03-21T01:08:47.127Z,12.88
2019-03-21T01:11:16.384Z,11.57
2019-03-21T01:13:52.569Z,10.98
2019-03-21T01:16:21.834Z,11.33
2019-03-21T01:18:51.061Z,11.75
2019-03-21T01:21:26.861Z,12.03
2019-03-21T01:24:03.399Z,10.98
2019-03-21T01:26:39.866Z,11.22
2019-03-21T01:29:09.104Z,12.65
2019-03-21T01:31:38.382Z,11.78
2019-03-21T01:34:14.880Z,14.13
2019-03-21T01:36:44.128Z,14.43
2019-03-21T01:39:13.488Z,13.80
2019-03-21T01:41:48.909Z,15.55
2019-03-21T01:44:25.034Z,13.68
2019-03-21T01:47:00.958Z,14.55
2019-03-21T01:49:30.188Z,13.58
2019-03-21T01:51:59.451Z,13.88
2019-03-21T01:54:35.546Z,15.00
2019-03-21T01:57:04.875Z,15.20
2019-03-21T01:59:34.137Z,15.33
2019-03-21T02:02:10.247Z,14.53
2019-03-21T02:04:39.622Z,15.60
2019-03-21T02:07:08.892Z,16.35
2019-03-21T02:09:45.167Z,14.50
2019-03-21T02:12:14.403Z,14.78
2019-03-21T02:14:51.842Z,13.90
2019-03-21T02:17:20.966Z,14.85
2019-03-21T02:19:57.340Z,15.57
2019-03-21T02:22:39.457Z,16.60
2019-03-21T02:25:11.986Z,13.80
2019-03-21T02:27:48.104Z,14.03
2019-03-21T02:30:19.804Z,16.03
2019-03-21T02:32:50.938Z,16.23
2019-03-21T02:35:27.174Z,16.90
2019-03-21T02:37:56.448Z,15.33
2019-03-21T02:40:25.732Z,17.57
2019-03-21T02:43:02.826Z,16.67
2019-03-21T02:45:38.373Z,17.50
2019-03-21T02:48:13.816Z,16.75
2019-03-21T02:50:43.092Z,17.05
2019-03-21T02:53:12.485Z,16.87
2019-03-21T02:55:48.927Z,16.77
2019-03-21T02:58:18.192Z,16.40
2019-03-21T03:00:47.674Z,18.43
2019-03-21T03:03:23.317Z,17.55
2019-03-21T03:05:52.643Z,16.73
2019-03-21T03:08:22.038Z,17.65
2019-03-21T03:10:59.438Z,17.75
2019-03-21T03:13:28.725Z,17.50
2019-03-21T03:15:58.060Z,16.62
2019-03-21T03:18:33.720Z,17.50
2019-03-21T03:21:09.066Z,18.87
2019-03-21T03:23:50.834Z,19.53
2019-03-21T03:26:20.134Z,19.07
2019-03-21T03:28:49.389Z,17.47
2019-03-21T03:31:24.863Z,18.82
2019-03-21T03:33:54.210Z,19.52
2019-03-21T03:36:23.502Z,18.07
2019-03-21T03:38:59.765Z,17.80
2019-03-21T03:41:29.030Z,18.62
2019-03-21T03:43:58.308Z,18.40
2019-03-21T03:46:41.022Z,19.73
2019-03-21T03:49:10.383Z,19.83
2019-03-21T03:51:39.634Z,18.87
2019-03-21T03:54:15.333Z,20.43
2019-03-21T03:56:44.593Z,18.67
2019-03-21T03:59:13.957Z,19.10
2019-03-21T04:01:50.927Z,21.33
2019-03-21T04:04:20.533Z,19.75
2019-03-21T04:06:49.798Z,18.85
2019-03-21T04:09:26.051Z,20.32
2019-03-21T04:11:55.594Z,20.40
2019-03-21T04:14:24.902Z,20.23
2019-03-21T04:17:01.027Z,20.20
2019-03-21T04:19:30.345Z,20.00
2019-03-21T04:22:13.041Z,18.98
2019-03-21T04:24:49.025Z,21.73
2019-03-21T04:27:24.467Z,20.30
2019-03-21T04:29:53.842Z,20.15
2019-03-21T04:32:23.131Z,20.60
2019-03-21T04:34:59.354Z,19.30
2019-03-21T04:37:28.669Z,21.27
2019-03-21T04:39:57.970Z,17.50
2019-03-21T04:42:33.730Z,19.92
2019-03-21T04:45:03.058Z,21.52
2019-03-21T04:47:45.267Z,19.27
2019-03-21T04:50:17.168Z,21.52
2019-03-21T04:52:46.436Z,19.90
2019-03-21T04:55:22.238Z,20.62
2019-03-21T04:57:51.528Z,19.62
2019-03-21T05:00:23.494Z,20.05
2019-03-21T05:03:00.296Z,18.57
2019-03-21T05:05:29.596Z,19.80
2019-03-21T05:07:59.137Z,20.00
2019-03-21T05:10:34.915Z,18.30
2019-03-21T05:13:04.283Z,21.42
2019-03-21T05:15:36.009Z,20.65
2019-03-21T05:18:15.301Z,20.23
2019-03-21T05:20:44.540Z,19.23
2019-03-21T05:23:26.796Z,19.30
2019-03-21T05:26:04.078Z,19.47
2019-03-21T05:28:40.031Z,19.95
2019-03-21T05:31:16.367Z,20.50
2019-03-21T05:33:52.725Z,17.95
2019-03-21T05:36:22.850Z,19.62
2019-03-21T05:39:04.829Z,19.70
2019-03-21T05:41:34.169Z,20.00
2019-03-21T05:44:15.627Z,19.07
2019-03-21T05:46:44.876Z,20.17
2019-03-21T05:49:27.045Z,21.50
2019-03-21T05:51:56.430Z,20.20
2019-03-21T05:54:25.711Z,20.90
2019-03-21T05:57:02.079Z,22.00
2019-03-21T05:59:31.356Z,19.80
2019-03-21T06:02:02.914Z,19.82
2019-03-21T06:04:39.177Z,19.17
2019-03-21T06:07:21.659Z,20.43
2019-03-21T06:09:57.943Z,21.52
2019-03-21T06:12:27.198Z,18.77
2019-03-21T06:14:59.282Z,17.87
2019-03-21T06:17:35.926Z,20.12
2019-03-21T06:20:16.700Z,18.75
2019-03-21T06:23:11.252Z,18.87
2019-03-21T06:25:52.872Z,20.75
2019-03-21T06:28:29.030Z,19.40
2019-03-21T06:30:58.259Z,17.87
2019-03-21T06:33:27.504Z,17.82
2019-03-21T06:36:03.653Z,18.85
2019-03-21T06:38:35.505Z,17.23
2019-03-21T06:41:05.639Z,19.10
2019-03-21T06:43:41.274Z,18.75
2019-03-21T06:46:10.503Z,18.48
2019-03-21T06:48:39.769Z,17.65
2019-03-21T06:51:22.149Z,17.70
2019-03-21T06:53:52.496Z,19.03
2019-03-21T06:56:21.760Z,16.23
2019-03-21T06:58:58.052Z,16.45
2019-03-21T07:01:27.300Z,17.42
2019-03-21T07:04:06.554Z,19.80
2019-03-21T07:06:34.297Z,17.77
2019-03-21T07:09:05.557Z,15.68
2019-03-21T07:11:34.834Z,15.78
2019-03-21T07:14:10.909Z,15.03
2019-03-21T07:16:40.212Z,15.18
2019-03-21T07:19:09.515Z,14.87
2019-03-21T07:21:45.986Z,15.23
2019-03-21T07:24:22.208Z,15.55
2019-03-21T07:27:04.553Z,14.23
2019-03-21T07:29:33.767Z,16.90
2019-03-21T07:32:03.031Z,13.88
2019-03-21T07:34:39.539Z,15.90
2019-03-21T07:37:08.824Z,15.43
2019-03-21T07:39:38.100Z,14.20
2019-03-21T07:42:14.857Z,14.15
2019-03-21T07:44:44.103Z,14.38
2019-03-21T07:47:13.593Z,14.85
2019-03-21T07:49:49.838Z,13.60
2019-03-21T07:52:26.054Z,15.48
2019-03-21T07:55:02.237Z,15.38
2019-03-21T07:57:31.524Z,14.18
2019-03-21T08:00:00.747Z,13.05
2019-03-21T08:02:36.359Z,13.50
2019-03-21T08:05:06.663Z,13.10
2019-03-21T08:07:35.918Z,14.10
2019-03-21T08:10:12.796Z,14.50
2019-03-21T08:12:42.110Z,15.03
2019-03-21T08:15:11.742Z,15.40
2019-03-21T08:17:48.065Z,17.20
2019-03-21T08:20:18.145Z,15.40
2019-03-21T08:22:47.391Z,14.78
2019-03-21T08:25:23.033Z,15.90
2019-03-21T08:27:59.304Z,15.50
2019-03-21T08:30:47.013Z,14.25
2019-03-21T08:33:16.257Z,15.13
2019-03-21T08:35:45.513Z,14.65
2019-03-21T08:38:21.666Z,14.13
2019-03-21T08:40:50.955Z,16.30
2019-03-21T08:43:20.224Z,15.45
2019-03-21T08:45:56.054Z,14.15
2019-03-21T08:48:25.332Z,14.23
2019-03-21T08:50:54.546Z,14.53
2019-03-21T08:53:36.829Z,16.57
2019-03-21T08:56:06.456Z,14.78
2019-03-21T08:58:35.725Z,15.45
2019-03-21T09:01:12.440Z,14.20
2019-03-21T09:03:41.692Z,15.18
2019-03-21T09:06:10.931Z,14.95
2019-03-21T09:08:46.554Z,13.88
2019-03-21T09:11:15.844Z,12.55
2019-03-21T09:13:45.089Z,13.85
2019-03-21T09:16:21.107Z,13.28
2019-03-21T09:18:50.379Z,13.88
2019-03-21T09:21:20.193Z,13.03
2019-03-21T09:23:56.370Z,12.70
2019-03-21T09:26:31.878Z,13.75
2019-03-21T09:29:07.762Z,11.85
2019-03-21T09:31:36.996Z,11.65
2019-03-21T09:34:06.329Z,10.78
2019-03-21T09:36:41.758Z,11.78
2019-03-21T09:39:11.085Z,11.85
2019-03-21T09:41:40.331Z,9.30
2019-03-21T09:44:15.763Z,8.70
2019-03-21T09:46:50.878Z,9.20
2019-03-21T09:49:15.991Z,9.10
2019-03-21T09:51:51.886Z,9.80
2019-03-21T09:54:27.762Z,8.53
2019-03-21T09:57:03.738Z,8.03
2019-03-21T09:59:33.017Z,8.75
2019-03-21T10:02:02.268Z,10.05
2019-03-21T10:04:37.839Z,9.28
2019-03-21T10:07:07.114Z,9.93
2019-03-21T10:09:36.346Z,10.00
2019-03-21T10:12:12.359Z,7.90
2019-03-21T10:14:41.597Z,8.80
2019-03-21T10:17:10.822Z,8.25
2019-03-21T10:19:48.348Z,9.48
2019-03-21T10:22:17.186Z,9.73
2019-03-21T10:24:59.927Z,9.18
2019-03-21T10:27:36.364Z,8.13
2019-03-21T10:30:13.729Z,9.13
2019-03-21T10:32:42.993Z,8.17
2019-03-21T10:35:12.247Z,9.88
2019-03-21T10:37:47.895Z,9.98
2019-03-21T10:40:17.120Z,8.80
2019-03-21T10:42:46.389Z,9.28
2019-03-21T10:45:22.172Z,8.88
2019-03-21T10:47:51.452Z,9.13
2019-03-21T10:50:37.762Z,8.73
2019-03-21T10:53:09.483Z,8.38
2019-03-21T10:55:52.093Z,7.03
2019-03-21T10:58:21.363Z,6.87
2019-03-21T11:00:50.647Z,7.75
2019-03-21T11:03:27.706Z,7.83
2019-03-21T11:05:56.942Z,8.78
2019-03-21T11:08:26.202Z,8.05
2019-03-21T11:11:01.598Z,9.00
2019-03-21T11:13:30.956Z,7.90
2019-03-21T11:16:00.256Z,7.58
2019-03-21T11:18:36.440Z,9.10
2019-03-21T11:21:05.808Z,7.47
2019-03-21T11:23:35.034Z,7.57
2019-03-21T11:26:10.724Z,8.35
2019-03-21T11:28:46.102Z,7.53
2019-03-21T11:31:22.343Z,7.50
2019-03-21T11:33:51.568Z,9.10
2019-03-21T11:36:20.847Z,7.70
2019-03-21T11:38:56.747Z,7.28
2019-03-21T11:41:26.014Z,7.60
2019-03-21T11:43:55.330Z,7.55
2019-03-21T11:46:31.418Z,8.25
2019-03-21T11:49:00.753Z,7.35
2019-03-21T11:51:30.100Z,7.15
2019-03-21T11:54:06.484Z,8.70
2019-03-21T11:56:42.509Z,8.40
2019-03-21T11:59:19.406Z,10.55
2019-03-21T12:01:48.711Z,8.80
2019-03-21T12:04:17.956Z,9.28
2019-03-21T12:06:53.820Z,8.95
2019-03-21T12:09:23.108Z,7.85
2019-03-21T12:11:52.455Z,8.55
2019-03-21T12:14:28.727Z,8.15
2019-03-21T12:16:58.072Z,9.50
2019-03-21T12:19:27.549Z,9.23
2019-03-21T12:22:03.321Z,9.90
2019-03-21T12:24:32.722Z,9.55
2019-03-21T12:27:15.456Z,8.68
2019-03-21T12:29:51.350Z,8.90
2019-03-21T12:32:27.465Z,9.30
2019-03-21T12:34:56.789Z,8.48
2019-03-21T12:37:26.098Z,8.30
2019-03-21T12:40:01.568Z,8.18
2019-03-21T12:42:30.799Z,9.03
2019-03-21T12:45:00.361Z,7.90
2019-03-21T12:47:36.575Z,7.75
2019-03-21T12:50:07.376Z,8.20
2019-03-21T12:55:14.730Z,8.58
2019-03-21T12:57:50.870Z,9.08
2019-03-21T13:00:39.913Z,7.47
2019-03-21T13:03:09.615Z,7.72
2019-03-21T13:05:39.665Z,7.83
2019-03-21T13:07:13.063Z,8.03
2019-03-21T13:08:15.310Z,8.98
2019-03-21T13:10:44.712Z,9.70
2019-03-21T13:13:14.039Z,9.28
2019-03-21T13:15:49.836Z,8.55
2019-03-21T13:18:19.089Z,9.40
2019-03-21T13:20:48.411Z,8.98
2019-03-21T13:23:23.883Z,9.83
2019-03-21T13:25:59.804Z,10.68
2019-03-21T13:28:43.341Z,10.53
2019-03-21T13:31:12.677Z,11.63
2019-03-21T13:33:42.023Z,11.33
2019-03-21T13:36:17.857Z,10.65
2019-03-21T13:38:47.059Z,10.45
2019-03-21T13:41:16.388Z,11.18
2019-03-21T13:43:52.447Z,11.90
2019-03-21T13:46:21.712Z,12.15
2019-03-21T13:48:50.912Z,13.15
2019-03-21T13:51:26.550Z,13.05
2019-03-21T13:53:55.727Z,12.98
2019-03-21T13:56:24.938Z,14.45
2019-03-21T13:59:07.485Z,11.30
2019-03-21T14:01:36.696Z,13.30
2019-03-21T14:04:05.890Z,12.18
2019-03-21T14:06:41.557Z,13.37
2019-03-21T14:09:10.876Z,11.85
2019-03-21T14:11:40.178Z,12.45
2019-03-21T14:14:15.910Z,14.55
2019-03-21T14:16:45.193Z,11.95
2019-03-21T14:19:14.565Z,13.18
2019-03-21T14:21:50.667Z,13.40
2019-03-21T14:24:19.975Z,13.20
2019-03-21T14:27:02.194Z,12.23
2019-03-21T14:29:38.180Z,11.27
2019-03-21T14:32:15.255Z,14.33
2019-03-21T14:34:44.508Z,11.90
2019-03-21T14:37:13.767Z,13.47
2019-03-21T14:39:49.967Z,13.30
2019-03-21T14:42:19.292Z,11.28
2019-03-21T14:44:48.595Z,13.48
2019-03-21T14:47:35.591Z,12.45
2019-03-21T14:49:55.449Z,12.88
2019-03-21T14:52:24.692Z,14.20
2019-03-21T14:55:01.122Z,12.10
2019-03-21T14:57:30.669Z,11.15
2019-03-21T15:00:16.242Z,11.95
2019-03-21T15:02:45.659Z,12.07
2019-03-21T15:05:15.598Z,10.95
2019-03-21T15:07:51.782Z,12.25
2019-03-21T15:10:21.081Z,10.93
2019-03-21T15:12:50.413Z,13.03
2019-03-21T15:15:27.544Z,11.53
2019-03-21T15:17:58.703Z,10.43
2019-03-21T15:20:28.406Z,12.35
2019-03-21T15:23:04.840Z,12.58
2019-03-21T15:25:34.173Z,10.95
2019-03-21T15:28:17.184Z,11.30
2019-03-21T15:30:53.489Z,12.45
2019-03-21T15:33:29.450Z,10.87
2019-03-21T15:35:58.675Z,12.20
2019-03-21T15:38:28.017Z,12.18
2019-03-21T15:41:03.475Z,11.65
2019-03-21T15:43:32.832Z,12.95
2019-03-21T15:46:02.099Z,11.35
2019-03-21T15:48:38.420Z,11.50
2019-03-21T15:51:07.711Z,10.90
2019-03-21T15:53:36.997Z,11.60
2019-03-21T15:56:12.851Z,11.20
2019-03-21T15:58:42.443Z,12.30
2019-03-21T16:01:24.779Z,11.18
2019-03-21T16:03:54.609Z,11.57
2019-03-21T16:06:24.677Z,11.15
2019-03-21T16:09:00.748Z,10.32
2019-03-21T16:11:29.982Z,10.88
2019-03-21T16:13:59.240Z,10.53
2019-03-21T16:16:34.934Z,10.55
2019-03-21T16:19:04.233Z,10.25
2019-03-21T16:21:46.885Z,11.22
2019-03-21T16:24:16.118Z,11.90
2019-03-21T16:26:45.342Z,10.17
2019-03-21T16:29:21.644Z,11.15
2019-03-21T16:31:57.103Z,9.95
2019-03-21T16:34:32.683Z,11.30
2019-03-21T16:37:02.264Z,10.88
2019-03-21T16:39:31.546Z,11.25
2019-03-21T16:42:08.040Z,11.68
2019-03-21T16:44:37.409Z,11.38
2019-03-21T16:47:06.695Z,10.85
2019-03-21T16:49:42.881Z,12.90
2019-03-21T16:52:12.171Z,10.05
2019-03-21T16:54:41.413Z,13.35
2019-03-21T16:57:17.835Z,12.95
2019-03-21T16:59:47.192Z,12.53
2019-03-21T17:02:31.404Z,11.40
2019-03-21T17:05:00.557Z,11.57
2019-03-21T17:07:29.992Z,12.28
2019-03-21T17:10:07.328Z,11.17
2019-03-21T17:12:36.856Z,11.63
2019-03-21T17:15:06.752Z,12.85
2019-03-21T17:17:43.085Z,13.13
2019-03-21T17:20:13.916Z,12.45
2019-03-21T17:22:43.381Z,12.50
2019-03-21T17:25:19.746Z,13.13
2019-03-21T17:27:49.265Z,13.90
2019-03-21T17:30:31.941Z,12.82
2019-03-21T17:33:08.419Z,13.13
2019-03-21T17:35:44.473Z,12.47
2019-03-21T17:38:13.773Z,11.88
2019-03-21T17:40:43.104Z,13.32
2019-03-21T17:43:19.283Z,13.13
2019-03-21T17:45:48.664Z,11.33
2019-03-21T17:48:17.951Z,13.18
2019-03-21T17:50:54.293Z,13.03
2019-03-21T17:53:23.524Z,13.43
2019-03-21T17:55:52.819Z,11.33
2019-03-21T17:58:29.026Z,14.03
2019-03-21T18:00:58.346Z,13.60
2019-03-21T18:03:41.604Z,12.28
2019-03-21T18:06:10.899Z,12.73
2019-03-21T18:08:40.125Z,12.90
2019-03-21T18:11:16.152Z,13.53
2019-03-21T18:13:45.397Z,13.73
2019-03-21T18:16:35.374Z,15.43
2019-03-21T18:19:11.779Z,14.10
2019-03-21T18:21:47.295Z,15.63
2019-03-21T18:24:16.521Z,14.37
2019-03-21T18:26:46.053Z,13.50
2019-03-21T18:29:22.286Z,15.78
2019-03-21T18:31:58.631Z,13.70
2019-03-21T18:34:34.766Z,14.45
2019-03-21T18:37:04.039Z,13.40
2019-03-21T18:39:33.401Z,14.10
2019-03-21T18:42:09.218Z,16.48
2019-03-21T18:44:41.088Z,15.10
2019-03-21T18:47:10.719Z,16.10
2019-03-21T18:49:46.583Z,18.02
2019-03-21T18:52:16.287Z,17.45
2019-03-21T18:54:45.597Z,15.30
2019-03-21T18:57:23.158Z,12.80
2019-03-21T18:59:53.305Z,15.57
2019-03-21T19:02:22.689Z,15.23
2019-03-21T19:05:04.638Z,17.73
2019-03-21T19:07:33.910Z,18.15
2019-03-21T19:10:03.559Z,15.83
2019-03-21T19:12:39.495Z,16.10
2019-03-21T19:15:10.188Z,15.50
2019-03-21T19:17:39.463Z,17.47
2019-03-21T19:20:16.053Z,17.98
2019-03-21T19:22:45.432Z,15.78
2019-03-21T19:25:18.949Z,16.55
2019-03-21T19:27:53.325Z,17.75
2019-03-21T19:30:29.622Z,16.05
2019-03-21T19:33:11.884Z,18.07
2019-03-21T19:35:43.752Z,15.80
2019-03-21T19:38:12.988Z,16.82
2019-03-21T19:40:49.203Z,20.83
2019-03-21T19:43:18.463Z,18.32
2019-03-21T19:45:47.751Z,19.20
2019-03-21T19:48:23.756Z,19.30
2019-03-21T19:50:53.060Z,19.17
2019-03-21T19:53:24.178Z,20.00
2019-03-21T19:56:08.444Z,19.48
2019-03-21T19:58:30.880Z,20.48
2019-03-21T20:01:00.317Z,20.48
2019-03-21T20:03:36.839Z,20.40
2019-03-21T20:06:12.588Z,20.17
2019-03-21T20:08:48.691Z,19.98
2019-03-21T20:11:17.922Z,21.80
2019-03-21T20:13:50.835Z,21.48
2019-03-21T20:16:27.257Z,21.77
2019-03-21T20:18:57.754Z,21.23
2019-03-21T20:21:29.984Z,20.57
2019-03-21T20:24:06.260Z,22.05
2019-03-21T20:26:35.659Z,19.25
2019-03-21T20:29:09.555Z,20.45
2019-03-21T20:31:48.811Z,21.05
2019-03-21T20:34:25.227Z,22.35
2019-03-21T20:37:01.010Z,20.75
2019-03-21T20:39:30.325Z,21.95
2019-03-21T20:42:00.647Z,21.00
2019-03-21T20:44:36.815Z,20.43
2019-03-21T20:47:06.125Z,23.22
2019-03-21T20:49:35.368Z,25.33
2019-03-21T20:52:10.779Z,25.40
2019-03-21T20:54:40.037Z,26.00
2019-03-21T20:57:09.365Z,25.80
2019-03-21T20:59:45.124Z,24.07
2019-03-21T21:02:14.712Z,23.47
2019-03-21T21:04:44.124Z,22.53
2019-03-21T21:07:26.627Z,23.87
2019-03-21T21:09:55.926Z,23.87
2019-03-21T21:12:25.159Z,23.20
2019-03-21T21:15:01.269Z,22.30
2019-03-21T21:17:30.557Z,23.12
2019-03-21T21:20:00.504Z,19.73
2019-03-21T21:22:35.912Z,23.98
2019-03-21T21:25:06.111Z,20.35
2019-03-21T21:27:35.373Z,22.48
2019-03-21T21:30:11.821Z,21.57
2019-03-21T21:32:48.550Z,19.92
2019-03-21T21:35:31.168Z,21.27
2019-03-21T21:38:00.400Z,20.62
2019-03-21T21:40:32.621Z,22.65
2019-03-21T21:43:09.078Z,21.75
2019-03-21T21:45:38.397Z,19.77
2019-03-21T21:48:07.794Z,21.30
2019-03-21T21:50:43.972Z,21.17
2019-03-21T21:53:13.999Z,21.57
2019-03-21T21:55:43.259Z,22.82
2019-03-21T21:58:20.317Z,23.38
2019-03-21T22:00:49.700Z,22.93
2019-03-21T22:03:19.072Z,22.50
2019-03-21T22:05:55.487Z,22.77
2019-03-21T22:08:31.698Z,25.00
2019-03-21T22:11:07.595Z,21.42
2019-03-21T22:13:36.858Z,21.12
2019-03-21T22:16:06.114Z,22.80
2019-03-21T22:18:42.501Z,25.20
2019-03-21T22:21:11.766Z,26.30
2019-03-21T22:23:41.004Z,23.75
2019-03-21T22:26:16.422Z,22.40
2019-03-21T22:28:45.661Z,24.03
2019-03-21T22:31:29.646Z,20.80
2019-03-21T22:34:08.149Z,21.15
2019-03-21T22:36:49.238Z,22.62
2019-03-21T22:39:15.235Z,22.63
2019-03-21T22:41:44.495Z,23.00
2019-03-21T22:44:20.388Z,22.52
2019-03-21T22:46:49.645Z,21.93
2019-03-21T22:49:18.929Z,20.43
2019-03-21T22:51:55.195Z,21.65
2019-03-21T22:54:24.453Z,19.82
2019-03-21T22:56:53.763Z,22.98
2019-03-21T22:59:29.167Z,24.35
2019-03-21T23:01:58.418Z,22.20
2019-03-21T23:04:27.717Z,21.42
2019-03-21T23:07:03.278Z,18.73
2019-03-21T23:09:39.396Z,21.68
2019-03-21T23:12:14.756Z,24.37
2019-03-21T23:14:44.032Z,22.63
2019-03-21T23:17:13.471Z,21.20
2019-03-21T23:19:49.312Z,23.77
2019-03-21T23:22:18.540Z,25.40
2019-03-21T23:24:47.808Z,21.40
2019-03-21T23:27:23.896Z,23.98
2019-03-21T23:29:53.112Z,23.40
2019-03-21T23:32:35.725Z,23.05
2019-03-21T23:35:12.246Z,23.67
2019-03-21T23:37:47.939Z,21.60
2019-03-21T23:40:17.438Z,22.00
2019-03-21T23:42:46.870Z,21.75
2019-03-21T23:45:23.196Z,20.20
2019-03-21T23:47:52.580Z,19.57
2019-03-21T23:50:22.151Z,21.05
2019-03-21T23:52:57.861Z,23.37
2019-03-21T23:55:27.241Z,18.35
2019-03-21T23:57:57.040Z,21.48
